Charlotte Douglas International Airport
KCLT : now visible

Airfield :











YOU CAN JOIN US ON...

 
LOGIN :

Register | Disclaimer

   EN    FR    IT 

 









Legend :    VFR   Marginal VFR   IFR   Intensive IFR   Very Intensive IFR
Visi :
Ceiling :
>= 8 km
>= 3000ft
5 to 8 km
1000 to 3000 ft
1500m to 5 km
500 to 1000 ft
800 to 1500m
200 to 500 ft
< 800m
< 200 ft
Symbols :   Thunderstorms  Fog  Heavy snow  Heavy precipitations  Wind > 20 kt






- Airport Elevation : 748 ft
- IATA code : CLT


KCLT - Charlotte Douglas International

CURRENT METAR :
  • 041152Z 34004KT 9SM FEW250 08/07 A3012 RMK SLP197 T00830072 10100 20067 51002

EXPIRED METARs :
  • 041052Z 00000KT 8SM CLR 07/06 A3012 RMK SLP196 T00670061
  • 040952Z 33005KT 10SM CLR 09/07 A3012 RMK SLP195 T00890072
  • 040852Z 31005KT 10SM CLR 09/08 A3011 RMK SLP194 T00890078 55007

TAF KCLT
Valid from the 04 at 12:00 until the 05 at 18:00 UTC


041121Z 0412/0518 33003KT P6SM SKC
FM041700 31007G15KT P6SM SKC
FM042300 35005KT P6SM FEW250
FM051200 30004KT P6SM FEW250
KZTL FIR / North America



MET'MAP, your aeronautical weather chart ! - Copyright ORBIFLY December 2007 - Disclaimer

ORBIFLY MET'MAP TEAM :

Programming & Development : Alexandra Zaïnal
Original concept : Baudouin d'Aumeries
Technical & hardware support : Manuel Goepfert
Assistance : Marc-Olivier Méhu




SOURCES & CREDITS :

   NOAA       Earth
Advisory